Time;durP1;ratioP1;P1;durP2;ratioP2;P2;SDS_P1;SDS_P2;PMS_P1;PMS_P2;Temp;Humidity;BMP_temperature;BMP_pressure;BME280_temperature;BME280_humidity;BME280_pressure;Samples;Min_cycle;Max_cycle;Signal;HPM_P1;HPM_P2
2022/10/19 00:00:50;;;;;;;;;;;;;;;21.26;55.39;102410.59;7285016;19;152722;-60
2022/10/19 00:03:26;;;;;;;;;;;;;;;21.24;55.21;102408.06;7283286;19;154101;-60
2022/10/19 00:05:53;;;;;;;;;;;;;;;21.23;55.27;102405.53;7283398;19;152573;-60
2022/10/19 00:08:19;;;;;;;;;;;;;;;21.23;55.64;102397.94;7286091;19;152205;-60
2022/10/19 00:10:46;;;;;;;;;;;;;;;21.22;55.67;102393.44;7281872;19;154554;-60
2022/10/19 00:13:13;;;;;;;;;;;;;;;21.22;55.26;102393.44;7285290;19;152640;-60
2022/10/19 00:15:40;;;;;;;;;;;;;;;21.21;55.41;102386.13;7282741;19;152345;-61
2022/10/19 00:18:07;;;;;;;;;;;;;;;21.21;55.64;102397.38;7283991;19;154958;-60
2022/10/19 00:20:35;;;;;;;;;;;;;;;21.20;55.54;102394.84;7291733;19;152136;-60
2022/10/19 00:23:01;;;;;;;;;;;;;;;21.19;55.42;102391.19;7284063;19;154101;-60
2022/10/19 00:25:28;;;;;;;;;;;;;;;21.19;55.44;102391.19;7284247;19;151846;-60
2022/10/19 00:27:55;;;;;;;;;;;;;;;21.17;55.24;102382.19;7285018;19;152606;-60
2022/10/19 00:30:21;;;;;;;;;;;;;;;21.17;55.23;102384.13;7282030;19;153882;-60
2022/10/19 00:32:48;;;;;;;;;;;;;;;21.19;55.75;102379.09;7285279;19;152135;-60
2022/10/19 00:35:18;;;;;;;;;;;;;;;21.17;55.59;102370.09;7283651;19;152518;-60
2022/10/19 00:37:44;;;;;;;;;;;;;;;21.16;55.49;102354.38;7284273;19;154083;-60
2022/10/19 00:40:12;;;;;;;;;;;;;;;21.15;55.26;102347.06;7285519;19;152338;-60
2022/10/19 00:42:38;;;;;;;;;;;;;;;21.15;55.28;102349.88;7291989;19;152975;-60
2022/10/19 00:45:10;;;;;;;;;;;;;;;21.15;55.48;102339.47;7284807;19;152543;-60
2022/10/19 00:47:37;;;;;;;;;;;;;;;21.14;55.49;102345.38;7285498;19;154007;-60
2022/10/19 00:50:04;;;;;;;;;;;;;;;21.14;55.51;102345.38;7284367;19;154603;-60
2022/10/19 00:52:31;;;;;;;;;;;;;;;21.12;55.57;102336.34;7281433;19;152937;-60
2022/10/19 00:54:58;;;;;;;;;;;;;;;21.13;55.80;102346.47;7282910;19;152898;-59
2022/10/19 00:57:27;;;;;;;;;;;;;;;21.13;55.50;102335.22;7282315;19;154489;-61
2022/10/19 00:59:54;;;;;;;;;;;;;;;21.11;55.57;102343.94;7283821;19;152213;-61
2022/10/19 01:02:21;;;;;;;;;;;;;;;21.11;55.89;102348.69;7285211;19;153513;-61
2022/10/19 01:04:50;;;;;;;;;;;;;;;21.11;55.71;102345.91;7290431;19;154262;-61
2022/10/19 01:07:17;;;;;;;;;;;;;;;21.11;55.61;102346.75;7284242;19;153419;-61
2022/10/19 01:09:44;;;;;;;;;;;;;;;21.10;56.03;102347.00;7283667;19;153536;-59
2022/10/19 01:12:29;;;;;;;;;;;;;;;21.09;55.99;102337.72;7284508;19;152384;-61
2022/10/19 01:15:10;;;;;;;;;;;;;;;21.10;55.91;102338.59;7283868;19;153267;-61
2022/10/19 01:17:46;;;;;;;;;;;;;;;21.08;55.93;102333.22;7283287;19;153509;-61
2022/10/19 01:20:24;;;;;;;;;;;;;;;21.09;55.94;102331.25;7284410;19;152121;-60
2022/10/19 01:23:04;;;;;;;;;;;;;;;21.08;55.84;102327.59;7283191;19;153459;-61
2022/10/19 01:25:48;;;;;;;;;;;;;;;21.06;56.02;102329.88;7291439;19;153395;-61
2022/10/19 01:28:15;;;;;;;;;;;;;;;21.08;56.09;102321.13;7283383;19;152673;-61
2022/10/19 01:30:58;;;;;;;;;;;;;;;21.07;56.41;102322.28;7283068;19;154517;-60
2022/10/19 01:33:30;;;;;;;;;;;;;;;21.07;56.00;102322.28;7285194;19;152261;-59
2022/10/19 01:35:57;;;;;;;;;;;;;;;21.05;56.35;102325.38;7280488;19;153029;-61
2022/10/19 01:38:29;;;;;;;;;;;;;;;21.06;56.30;102314.97;7283325;19;152614;-61
2022/10/19 01:41:16;;;;;;;;;;;;;;;21.06;56.53;102314.97;7281369;19;152022;-61
2022/10/19 01:43:47;;;;;;;;;;;;;;;21.05;56.37;102321.72;7284825;19;152706;-61
2022/10/19 01:46:43;;;;;;;;;;;;;;;21.05;56.63;102324.50;7282607;19;154579;-61
2022/10/19 01:49:16;;;;;;;;;;;;;;;21.04;56.73;102323.66;7290409;19;152062;-61
2022/10/19 01:51:46;;;;;;;;;;;;;;;21.03;56.37;102327.59;7281793;19;153460;-60
2022/10/19 01:54:14;;;;;;;;;;;;;;;21.03;56.40;102318.34;7283204;19;153199;-60
2022/10/19 01:56:43;;;;;;;;;;;;;;;21.03;56.44;102312.72;7280808;19;152300;-60
2022/10/19 01:59:11;;;;;;;;;;;;;;;21.02;56.65;102308.22;7282151;19;154076;-59
2022/10/19 02:01:40;;;;;;;;;;;;;;;21.02;56.68;102308.22;7281539;19;152143;-60
2022/10/19 02:04:07;;;;;;;;;;;;;;;21.02;56.42;102296.97;7281385;19;152901;-59
2022/10/19 02:06:34;;;;;;;;;;;;;;;21.01;56.97;102298.09;7281404;19;153947;-59
2022/10/19 02:09:01;;;;;;;;;;;;;;;21.02;56.98;102296.97;7282319;19;152217;-59
2022/10/19 02:11:28;;;;;;;;;;;;;;;21.01;56.59;102298.94;7289694;19;152303;-60
2022/10/19 02:13:59;;;;;;;;;;;;;;;21.01;56.92;102295.28;7282932;19;151960;-59
2022/10/19 02:16:29;;;;;;;;;;;;;;;21.00;57.03;102280.38;7281940;19;153027;-59
2022/10/19 02:18:56;;;;;;;;;;;;;;;21.00;57.07;102283.19;7282185;19;155010;-59
2022/10/19 02:21:23;;;;;;;;;;;;;;;21.00;57.14;102271.97;7281058;19;152228;-59
2022/10/19 02:23:49;;;;;;;;;;;;;;;21.00;57.37;102271.13;7283174;19;152449;-60
2022/10/19 02:26:20;;;;;;;;;;;;;;;20.99;56.98;102270.25;7281970;19;153764;-60
2022/10/19 02:28:47;;;;;;;;;;;;;;;20.99;57.16;102269.41;7283945;19;152028;-60
2022/10/19 02:31:13;;;;;;;;;;;;;;;20.97;57.24;102266.91;7281950;19;153539;-60
2022/10/19 02:33:40;;;;;;;;;;;;;;;20.99;57.54;102272.22;7290224;19;153439;-60
2022/10/19 02:36:07;;;;;;;;;;;;;;;20.97;57.44;102266.91;7279484;19;152623;-60
2022/10/19 02:38:33;;;;;;;;;;;;;;;20.97;57.56;102255.66;7282395;19;152986;-60
2022/10/19 02:41:06;;;;;;;;;;;;;;;20.97;57.29;102254.81;7281617;19;152910;-60
2022/10/19 02:43:35;;;;;;;;;;;;;;;20.97;57.33;102255.66;7282292;19;152383;-60
2022/10/19 02:46:25;;;;;;;;;;;;;;;20.98;57.47;102245.28;7280319;19;155792;-60
2022/10/19 02:48:53;;;;;;;;;;;;;;;20.97;57.57;102232.34;7281255;19;152363;-59
2022/10/19 02:51:46;;;;;;;;;;;;;;;20.96;57.54;102222.22;7281008;19;152330;-60
2022/10/19 02:54:12;;;;;;;;;;;;;;;20.96;57.47;102217.44;7278633;19;152654;-59
2022/10/19 02:56:39;;;;;;;;;;;;;;;20.95;57.54;102215.75;7288079;19;152007;-59
2022/10/19 02:59:06;;;;;;;;;;;;;;;20.96;57.64;102220.25;7278780;19;152910;-59
2022/10/19 03:01:33;;;;;;;;;;;;;;;20.96;57.32;102219.41;7283009;19;151841;-60
2022/10/19 03:03:59;;;;;;;;;;;;;;;20.97;57.61;102209.88;7279225;19;153822;-60
2022/10/19 03:06:27;;;;;;;;;;;;;;;20.96;57.39;102208.19;7279425;19;152218;-60
2022/10/19 03:08:53;;;;;;;;;;;;;;;20.94;57.59;102200.00;7282648;19;151808;-60
2022/10/19 03:11:20;;;;;;;;;;;;;;;20.96;57.71;102202.56;7281277;19;153523;-60
2022/10/19 03:13:47;;;;;;;;;;;;;;;20.94;57.87;102191.59;7280949;19;153035;-60
2022/10/19 03:16:33;;;;;;;;;;;;;;;20.94;57.86;102190.78;7278850;19;152060;-60
2022/10/19 03:19:00;;;;;;;;;;;;;;;20.94;57.66;102188.78;7283451;19;154516;-60
2022/10/19 03:21:26;;;;;;;;;;;;;;;20.92;57.66;102196.66;7279589;19;152464;-60
2022/10/19 03:23:53;;;;;;;;;;;;;;;20.92;57.95;102191.03;7281329;19;152723;-60
2022/10/19 03:26:20;;;;;;;;;;;;;;;20.92;57.99;102187.38;7279930;19;152409;-60
2022/10/19 03:28:46;;;;;;;;;;;;;;;20.92;57.68;102190.19;7281462;19;152034;-60
2022/10/19 03:31:13;;;;;;;;;;;;;;;20.92;57.82;102188.22;7280199;19;153389;-60
2022/10/19 03:33:40;;;;;;;;;;;;;;;20.92;57.80;102195.81;7279629;19;153334;-60
2022/10/19 03:36:13;;;;;;;;;;;;;;;20.92;57.84;102187.38;7276654;19;152666;-60
2022/10/19 03:38:40;;;;;;;;;;;;;;;20.92;57.97;102190.19;7287269;19;152420;-60
2022/10/19 03:41:07;;;;;;;;;;;;;;;20.92;58.26;102181.78;7280382;19;152294;-60
2022/10/19 03:43:34;;;;;;;;;;;;;;;20.91;57.88;102183.72;7280306;19;151961;-60
2022/10/19 03:46:01;;;;;;;;;;;;;;;20.92;57.90;102178.97;7279808;19;153809;-60
2022/10/19 03:48:27;;;;;;;;;;;;;;;20.91;57.84;102161.25;7280909;19;153574;-60
2022/10/19 03:50:58;;;;;;;;;;;;;;;20.92;57.90;102159.28;7279475;19;153556;-60
2022/10/19 03:53:24;;;;;;;;;;;;;;;20.93;58.11;102159.03;7279210;19;154412;-60
2022/10/19 03:55:51;;;;;;;;;;;;;;;20.92;58.05;102140.47;7278964;19;152067;-60
2022/10/19 03:58:17;;;;;;;;;;;;;;;20.91;58.24;102140.75;7280732;19;152600;-60
2022/10/19 04:00:44;;;;;;;;;;;;;;;20.91;58.08;102143.56;7285938;19;153837;-60
2022/10/19 04:03:11;;;;;;;;;;;;;;;20.90;58.07;102148.31;7278540;19;151916;-60
2022/10/19 04:05:37;;;;;;;;;;;;;;;20.89;58.09;102146.66;7278220;19;155008;-60
2022/10/19 04:08:04;;;;;;;;;;;;;;;20.90;58.57;102150.28;7279244;19;153412;-60
2022/10/19 04:10:31;;;;;;;;;;;;;;;20.89;58.38;102152.28;7280284;19;151830;-61
2022/10/19 04:12:58;;;;;;;;;;;;;;;20.88;58.26;102147.78;7277876;19;154529;-60
2022/10/19 04:15:24;;;;;;;;;;;;;;;20.90;58.33;102150.28;7279182;19;151763;-60
2022/10/19 04:17:51;;;;;;;;;;;;;;;20.89;58.54;102157.06;7277381;19;153453;-60
2022/10/19 04:20:17;;;;;;;;;;;;;;;20.89;58.53;102171.09;7277849;19;153345;-60
2022/10/19 04:22:44;;;;;;;;;;;;;;;20.88;58.41;102159.03;7285677;19;154153;-60
2022/10/19 04:25:11;;;;;;;;;;;;;;;20.88;58.77;102161.81;7278006;19;153677;-60
2022/10/19 04:27:38;;;;;;;;;;;;;;;20.88;58.64;102156.22;7278337;19;151957;-60
2022/10/19 04:30:05;;;;;;;;;;;;;;;20.89;58.78;102151.44;7281165;19;154247;-60
2022/10/19 04:32:31;;;;;;;;;;;;;;;20.88;58.84;102149.75;7285474;19;153676;-61
2022/10/19 04:34:58;;;;;;;;;;;;;;;20.87;58.68;102148.91;7283415;19;156124;-61
2022/10/19 04:37:25;;;;;;;;;;;;;;;20.88;58.82;102144.97;7282349;19;154585;-60
2022/10/19 04:39:51;;;;;;;;;;;;;;;20.87;58.42;102154.53;7284899;19;152522;-60
2022/10/19 04:42:18;;;;;;;;;;;;;;;20.88;58.50;102141.31;7285619;19;152680;-60
2022/10/19 04:44:44;;;;;;;;;;;;;;;20.89;58.79;102134.59;7290189;19;152758;-61
2022/10/19 04:47:11;;;;;;;;;;;;;;;20.88;58.60;102130.09;7285716;19;152419;-60
2022/10/19 04:49:38;;;;;;;;;;;;;;;20.88;58.71;102127.28;7283323;19;152394;-60
2022/10/19 04:52:04;;;;;;;;;;;;;;;20.88;58.45;102125.31;7280601;19;153789;-60
2022/10/19 04:54:31;;;;;;;;;;;;;;;20.86;58.79;102127.53;7285328;19;152238;-60
2022/10/19 04:57:00;;;;;;;;;;;;;;;20.86;58.72;102125.59;7283199;19;152544;-60
2022/10/19 04:59:27;;;;;;;;;;;;;;;20.88;58.71;102121.66;7282519;19;153907;-60
2022/10/19 05:01:54;;;;;;;;;;;;;;;20.86;58.80;102114.34;7280017;19;153950;-60
2022/10/19 05:04:20;;;;;;;;;;;;;;;20.86;58.40;102105.91;7282208;19;154664;-61
2022/10/19 05:06:47;;;;;;;;;;;;;;;20.87;58.62;102118.00;7289685;19;154525;-61
2022/10/19 05:09:14;;;;;;;;;;;;;;;20.88;59.26;102118.84;7284050;19;153542;-60
2022/10/19 05:11:40;;;;;;;;;;;;;;;20.89;60.00;102112.94;7282836;19;152583;-61
2022/10/19 05:14:07;;;;;;;;;;;;;;;20.95;60.27;102116.56;7283565;19;151999;-60
2022/10/19 05:16:34;;;;;;;;;;;;;;;20.98;60.70;102114.06;7284375;19;152653;-60
2022/10/19 05:19:00;;;;;;;;;;;;;;;21.01;60.88;102105.06;7283783;19;153878;-61
2022/10/19 05:21:29;;;;;;;;;;;;;;;21.07;60.76;102109.56;7282845;19;151980;-60
2022/10/19 05:23:56;;;;;;;;;;;;;;;21.12;61.22;102109.50;7285676;19;152549;-60
2022/10/19 05:26:24;;;;;;;;;;;;;;;21.17;61.29;102097.44;7284304;19;153351;-60
2022/10/19 05:28:55;;;;;;;;;;;;;;;21.21;60.94;102090.16;7292549;19;151641;-61
2022/10/19 05:31:26;;;;;;;;;;;;;;;21.28;61.28;102093.50;7284352;19;154674;-60
2022/10/19 05:33:53;;;;;;;;;;;;;;;21.32;60.86;102090.97;7284102;19;151804;-60
2022/10/19 05:36:21;;;;;;;;;;;;;;;21.37;60.79;102097.41;7280506;19;152289;-61
2022/10/19 05:38:48;;;;;;;;;;;;;;;21.42;60.97;102091.78;7283324;19;152961;-60
2022/10/19 05:41:15;;;;;;;;;;;;;;;21.48;61.25;102087.81;7282804;19;152329;-60
2022/10/19 05:43:42;;;;;;;;;;;;;;;21.53;61.41;102072.91;7282599;19;153056;-60
2022/10/19 05:46:11;;;;;;;;;;;;;;;21.58;61.15;102065.25;7280286;19;153363;-60
2022/10/19 05:48:38;;;;;;;;;;;;;;;21.63;61.60;102068.03;7292637;19;152018;-60
2022/10/19 05:51:06;;;;;;;;;;;;;;;21.67;61.03;102071.13;7282175;19;153466;-60
2022/10/19 05:53:33;;;;;;;;;;;;;;;21.70;61.23;102085.47;7282450;19;152399;-60
2022/10/19 05:56:02;;;;;;;;;;;;;;;21.76;61.03;102079.81;7281952;19;153115;-61
2022/10/19 05:58:29;;;;;;;;;;;;;;;21.80;61.08;102072.47;7280460;19;152373;-60
2022/10/19 06:00:56;;;;;;;;;;;;;;;21.83;61.02;102075.56;7283058;19;152581;-60
2022/10/19 06:03:24;;;;;;;;;;;;;;;21.87;60.33;102068.22;7282706;19;153255;-60
2022/10/19 06:05:51;;;;;;;;;;;;;;;21.90;60.28;102072.41;7280879;19;152103;-60
2022/10/19 06:08:18;;;;;;;;;;;;;;;21.94;60.56;102070.75;7284331;19;152961;-60
2022/10/19 06:10:45;;;;;;;;;;;;;;;21.97;60.54;102067.34;7290233;19;152545;-60
2022/10/19 06:13:13;;;;;;;;;;;;;;;22.00;60.01;102066.75;7283302;19;153159;-60
2022/10/19 06:15:40;;;;;;;;;;;;;;;22.02;60.11;102065.34;7282212;19;153296;-60
2022/10/19 06:18:07;;;;;;;;;;;;;;;22.06;60.03;102071.22;7280501;19;153045;-60
2022/10/19 06:20:35;;;;;;;;;;;;;;;22.10;59.62;102069.50;7283578;19;151871;-61
2022/10/19 06:23:01;;;;;;;;;;;;;;;22.09;59.22;102074.28;7280943;19;152746;-60
2022/10/19 06:25:29;;;;;;;;;;;;;;;22.10;59.22;102069.50;7282104;19;154208;-61
2022/10/19 06:27:55;;;;;;;;;;;;;;;22.12;59.01;102065.25;7283951;19;152292;-61
2022/10/19 06:30:22;;;;;;;;;;;;;;;22.12;58.96;102064.44;7282905;19;153996;-60
2022/10/19 06:32:49;;;;;;;;;;;;;;;22.12;58.83;102056.81;7289793;19;152727;-61
2022/10/19 06:35:15;;;;;;;;;;;;;;;22.13;58.95;102063.28;7281861;19;153528;-61
2022/10/19 06:37:42;;;;;;;;;;;;;;;22.17;58.47;102055.94;7279780;19;152315;-60
2022/10/19 06:40:09;;;;;;;;;;;;;;;22.04;55.98;102057.44;7283416;19;152525;-59
2022/10/19 06:42:38;;;;;;;;;;;;;;;21.98;56.00;102060.59;7282458;19;152812;-59
2022/10/19 06:45:07;;;;;;;;;;;;;;;22.04;56.74;102065.03;7280967;19;154855;-61
2022/10/19 06:47:35;;;;;;;;;;;;;;;21.98;56.06;102058.63;7281816;19;152397;-61
2022/10/19 06:50:04;;;;;;;;;;;;;;;21.95;56.32;102053.56;7282018;19;152529;-61
2022/10/19 06:52:31;;;;;;;;;;;;;;;21.94;55.76;102049.03;7275795;19;153952;-62
2022/10/19 06:54:58;;;;;;;;;;;;;;;21.90;56.08;102027.38;7288230;19;152247;-61
2022/10/19 06:57:25;;;;;;;;;;;;;;;21.87;55.76;102026.00;7278656;19;153408;-61
2022/10/19 06:59:52;;;;;;;;;;;;;;;21.84;55.83;102037.84;7278928;19;152159;-60
2022/10/19 07:02:19;;;;;;;;;;;;;;;21.83;55.46;102030.53;7281565;19;152632;-61
2022/10/19 07:04:46;;;;;;;;;;;;;;;21.80;55.40;102030.28;7251158;19;153994;-61
2022/10/19 07:07:13;;;;;;;;;;;;;;;21.80;55.19;102027.47;7267125;19;152409;-60
2022/10/19 07:09:39;;;;;;;;;;;;;;;21.81;54.48;102023.50;7279521;19;154182;-60
2022/10/19 07:12:09;;;;;;;;;;;;;;;21.80;53.96;102013.41;7279412;19;153207;-60
2022/10/19 07:14:38;;;;;;;;;;;;;;;21.75;54.00;102019.91;7278588;19;153319;-58
2022/10/19 07:17:13;;;;;;;;;;;;;;;21.77;53.57;102003.56;7286446;19;153112;-59
2022/10/19 07:19:39;;;;;;;;;;;;;;;21.76;53.79;102004.69;7278753;19;152399;-60
2022/10/19 07:22:06;;;;;;;;;;;;;;;21.78;53.67;101998.78;7279391;19;153899;-60
2022/10/19 07:24:33;;;;;;;;;;;;;;;21.69;53.89;102007.84;7280744;19;153974;-59
2022/10/19 07:27:05;;;;;;;;;;;;;;;21.65;53.47;101998.28;7280879;19;152525;-60
2022/10/19 07:29:44;;;;;;;;;;;;;;;21.64;54.61;101987.31;7281212;19;153422;-60
2022/10/19 07:32:13;;;;;;;;;;;;;;;21.64;54.42;101998.56;7279060;19;152531;-60
2022/10/19 07:34:40;;;;;;;;;;;;;;;21.65;54.56;102006.75;7279852;19;153736;-60
2022/10/19 07:37:09;;;;;;;;;;;;;;;21.66;55.06;102005.63;7279879;19;152202;-60
2022/10/19 07:39:36;;;;;;;;;;;;;;;21.65;55.04;102003.91;7287523;19;152097;-60
2022/10/19 07:42:03;;;;;;;;;;;;;;;21.64;54.94;102002.22;7281617;19;153741;-61
2022/10/19 07:44:30;;;;;;;;;;;;;;;21.61;55.20;101991.56;7280395;19;153661;-60
2022/10/19 07:47:05;;;;;;;;;;;;;;;21.61;55.12;102011.25;7280256;19;153043;-60
2022/10/19 07:49:31;;;;;;;;;;;;;;;21.62;55.56;102007.28;7279742;19;153217;-60
2022/10/19 07:51:58;;;;;;;;;;;;;;;21.63;55.16;102003.34;7277291;19;154072;-60
2022/10/19 07:54:26;;;;;;;;;;;;;;;21.64;55.41;102005.03;7281983;19;152994;-60
2022/10/19 07:57:00;;;;;;;;;;;;;;;21.66;55.30;101994.34;7280566;19;152948;-60
2022/10/19 07:59:30;;;;;;;;;;;;;;;21.68;55.60;101994.91;7283955;19;153276;-60
2022/10/19 08:01:58;;;;;;;;;;;;;;;21.69;55.26;101981.66;7279688;19;152752;-60
2022/10/19 08:04:25;;;;;;;;;;;;;;;21.70;55.54;101986.16;7279263;19;153397;-60
2022/10/19 08:07:12;;;;;;;;;;;;;;;21.70;55.17;101984.22;7286265;19;152177;-60
2022/10/19 08:09:38;;;;;;;;;;;;;;;21.70;55.48;101995.47;7285760;19;153412;-60
2022/10/19 08:12:18;;;;;;;;;;;;;;;21.70;55.25;101981.38;7284827;19;154020;-61
2022/10/19 08:14:46;;;;;;;;;;;;;;;21.71;55.34;101985.88;7285884;19;154069;-60
2022/10/19 08:17:16;;;;;;;;;;;;;;;21.70;55.54;101983.38;7286948;19;153349;-60
2022/10/19 08:19:43;;;;;;;;;;;;;;;21.70;55.12;101972.94;7285254;19;152518;-60
2022/10/19 08:22:10;;;;;;;;;;;;;;;21.70;55.58;101975.75;7292270;19;152024;-60
2022/10/19 08:24:37;;;;;;;;;;;;;;;21.70;55.26;101987.03;7283261;19;154501;-60
2022/10/19 08:27:05;;;;;;;;;;;;;;;21.70;55.48;101981.38;7286603;19;151844;-60
2022/10/19 08:29:32;;;;;;;;;;;;;;;21.70;55.44;101972.09;7286189;19;152682;-60
2022/10/19 08:31:58;;;;;;;;;;;;;;;21.70;55.03;101969.28;7285152;19;152681;-60
2022/10/19 08:34:25;;;;;;;;;;;;;;;21.68;55.35;101963.94;7285878;19;152040;-60
2022/10/19 08:37:01;;;;;;;;;;;;;;;21.68;55.31;101965.91;7284710;19;153171;-60
2022/10/19 08:39:45;;;;;;;;;;;;;;;21.67;55.22;101951.00;7284015;19;153621;-60
2022/10/19 08:42:15;;;;;;;;;;;;;;;21.66;55.20;101968.19;7287320;19;153119;-60
2022/10/19 08:44:41;;;;;;;;;;;;;;;21.65;55.45;101958.91;7291180;19;152390;-60
2022/10/19 08:47:26;;;;;;;;;;;;;;;21.65;55.25;101963.69;7286766;19;152406;-63
2022/10/19 08:49:54;;;;;;;;;;;;;;;21.64;55.08;101957.22;7286247;19;152861;-60
2022/10/19 08:52:22;;;;;;;;;;;;;;;21.64;55.38;101954.41;7282517;19;154121;-60
2022/10/19 08:54:54;;;;;;;;;;;;;;;21.61;55.32;101951.34;7285529;19;153332;-60
2022/10/19 08:57:30;;;;;;;;;;;;;;;21.61;55.45;101959.78;7285908;19;152313;-60
2022/10/19 09:00:06;;;;;;;;;;;;;;;21.59;55.37;101965.69;7250939;19;154083;-60
2022/10/19 09:02:33;;;;;;;;;;;;;;;21.58;55.44;101965.97;7280503;19;152441;-60
2022/10/19 09:05:04;;;;;;;;;;;;;;;21.58;55.19;101949.94;7283169;19;153038;-60
2022/10/19 09:07:38;;;;;;;;;;;;;;;21.60;55.46;101955.28;7287723;19;152862;-60
2022/10/19 09:10:17;;;;;;;;;;;;;;;21.59;55.22;101962.03;7283449;19;153492;-60
2022/10/19 09:12:49;;;;;;;;;;;;;;;21.57;55.20;101955.88;7279095;19;152657;-60
2022/10/19 09:15:25;;;;;;;;;;;;;;;21.55;54.94;101950.53;7281395;19;152516;-60
2022/10/19 09:17:51;;;;;;;;;;;;;;;21.55;55.01;101949.69;7284047;19;152755;-60
2022/10/19 09:20:20;;;;;;;;;;;;;;;21.54;55.16;101942.38;7281328;19;154204;-60
2022/10/19 09:22:54;;;;;;;;;;;;;;;21.54;55.15;101945.19;7281430;19;152197;-60
2022/10/19 09:25:22;;;;;;;;;;;;;;;21.53;55.15;101949.97;7282688;19;153190;-60
2022/10/19 09:27:53;;;;;;;;;;;;;;;21.51;54.95;101929.75;7280883;19;153881;-60
2022/10/19 09:30:21;;;;;;;;;;;;;;;21.51;55.32;101935.38;7290193;19;152988;-60
2022/10/19 09:32:50;;;;;;;;;;;;;;;21.51;55.34;101932.56;7282379;19;154644;-60
2022/10/19 09:35:20;;;;;;;;;;;;;;;21.51;55.14;101935.38;7282519;19;152373;-60
2022/10/19 09:37:48;;;;;;;;;;;;;;;21.51;54.97;101931.72;7282778;19;152732;-60
2022/10/19 09:40:33;;;;;;;;;;;;;;;21.50;54.97;101941.28;7281957;19;152293;-60
2022/10/19 09:43:12;;;;;;;;;;;;;;;21.49;55.01;101932.00;7282031;19;152136;-60
2022/10/19 09:46:04;;;;;;;;;;;;;;;21.48;55.11;101916.28;7277125;19;151753;-60
2022/10/19 09:48:48;;;;;;;;;;;;;;;21.49;55.36;101919.91;7276564;19;154469;-60
2022/10/19 09:51:15;;;;;;;;;;;;;;;21.47;55.40;101908.97;7283349;19;153364;-61
2022/10/19 09:53:45;;;;;;;;;;;;;;;21.48;54.94;101890.16;7278691;19;153452;-60
2022/10/19 09:56:19;;;;;;;;;;;;;;;21.47;55.19;101903.38;7277587;19;152921;-60
2022/10/19 09:58:57;;;;;;;;;;;;;;;21.47;55.40;101908.13;7277008;19;153506;-60
2022/10/19 10:01:35;;;;;;;;;;;;;;;21.48;54.98;101912.63;7272922;19;153977;-60
2022/10/19 10:04:09;;;;;;;;;;;;;;;21.47;55.08;101911.78;7276233;19;153500;-61
2022/10/19 10:06:37;;;;;;;;;;;;;;;21.48;55.22;101895.78;7277120;19;154705;-61
2022/10/19 10:09:04;;;;;;;;;;;;;;;21.48;55.26;101887.34;7272623;19;152933;-61
2022/10/19 10:11:32;;;;;;;;;;;;;;;21.48;55.26;101891.00;7277703;19;152641;-60
2022/10/19 10:14:05;;;;;;;;;;;;;;;21.48;55.40;101891.00;7281807;19;153142;-61
2022/10/19 10:16:35;;;;;;;;;;;;;;;21.47;55.49;101889.31;7276565;19;152690;-61
2022/10/19 10:19:04;;;;;;;;;;;;;;;21.48;55.48;101891.00;7275936;19;152767;-61
2022/10/19 10:21:33;;;;;;;;;;;;;;;21.48;55.03;101887.34;7274980;19;153111;-61
2022/10/19 10:24:04;;;;;;;;;;;;;;;21.48;55.06;101901.41;7276140;19;152120;-62
2022/10/19 10:26:36;;;;;;;;;;;;;;;21.48;55.05;101907.03;7277329;19;152894;-61
2022/10/19 10:29:14;;;;;;;;;;;;;;;21.48;55.26;101896.63;7274770;19;153786;-61
2022/10/19 10:31:41;;;;;;;;;;;;;;;21.47;55.05;101889.31;7277378;19;153638;-61
2022/10/19 10:34:16;;;;;;;;;;;;;;;21.48;55.41;101888.19;7274618;19;152263;-60
2022/10/19 10:37:14;;;;;;;;;;;;;;;21.48;55.41;101893.81;7280964;19;154340;-61
2022/10/19 10:39:41;;;;;;;;;;;;;;;21.48;55.42;101896.63;7278173;19;153195;-61
2022/10/19 10:42:10;;;;;;;;;;;;;;;21.47;55.19;101894.94;7279931;19;154698;-61
2022/10/19 10:44:38;;;;;;;;;;;;;;;21.48;55.37;101901.41;7280982;19;152407;-60
2022/10/19 10:47:12;;;;;;;;;;;;;;;21.48;55.15;101891.00;7278925;19;152137;-60
2022/10/19 10:49:41;;;;;;;;;;;;;;;21.48;55.38;101905.03;7255453;19;155257;-60
2022/10/19 10:52:12;;;;;;;;;;;;;;;21.47;55.00;101906.16;7277696;19;152156;-60
2022/10/19 10:54:39;;;;;;;;;;;;;;;21.46;54.92;101910.09;7277965;19;153185;-60
2022/10/19 10:57:12;;;;;;;;;;;;;;;21.45;54.98;101908.41;7278010;19;153438;-60
2022/10/19 10:59:54;;;;;;;;;;;;;;;21.46;54.99;101889.59;7283524;19;152227;-61
2022/10/19 11:02:28;;;;;;;;;;;;;;;21.44;55.21;101889.88;7276067;19;152875;-60
2022/10/19 11:04:58;;;;;;;;;;;;;;;21.44;55.21;101884.25;7275413;19;152146;-60
2022/10/19 11:07:33;;;;;;;;;;;;;;;21.44;55.20;101875.00;7276225;19;152115;-60
2022/10/19 11:10:08;;;;;;;;;;;;;;;21.42;55.39;101868.81;7280160;19;153449;-60
2022/10/19 11:12:35;;;;;;;;;;;;;;;21.42;54.89;101863.19;7278427;19;152671;-60
2022/10/19 11:15:07;;;;;;;;;;;;;;;21.43;55.04;101862.06;7278798;19;153916;-60
2022/10/19 11:17:36;;;;;;;;;;;;;;;21.42;55.03;101852.78;7279634;19;153486;-60
2022/10/19 11:20:04;;;;;;;;;;;;;;;21.41;55.22;101836.19;7276923;19;152437;-60
2022/10/19 11:22:38;;;;;;;;;;;;;;;21.41;55.25;101834.22;7284356;19;153605;-60
2022/10/19 11:25:21;;;;;;;;;;;;;;;21.41;55.29;101816.50;7278672;19;152282;-60
2022/10/19 11:27:53;;;;;;;;;;;;;;;21.42;55.50;101805.00;7278786;19;153192;-60
2022/10/19 11:30:21;;;;;;;;;;;;;;;21.41;55.50;101811.75;7279002;19;153511;-60
2022/10/19 11:33:00;;;;;;;;;;;;;;;21.40;55.63;101807.25;7280152;19;152545;-60
2022/10/19 11:35:39;;;;;;;;;;;;;;;21.38;55.69;101811.50;7279524;19;153990;-60
2022/10/19 11:38:24;;;;;;;;;;;;;;;21.39;55.59;101802.78;7276873;19;153120;-60
2022/10/19 11:41:14;;;;;;;;;;;;;;;21.38;55.82;101806.72;7286354;19;152089;-60
2022/10/19 11:43:58;;;;;;;;;;;;;;;21.40;55.37;101801.63;7285206;19;153329;-60
2022/10/19 11:46:42;;;;;;;;;;;;;;;21.39;55.74;101791.53;7292741;19;153771;-60
2022/10/19 11:49:17;;;;;;;;;;;;;;;21.40;55.83;101790.38;7284597;19;152719;-60
2022/10/19 11:51:50;;;;;;;;;;;;;;;21.42;55.39;101771.25;7281155;19;153389;-60
2022/10/19 11:54:26;;;;;;;;;;;;;;;21.44;55.30;101763.34;7284410;19;152243;-60
2022/10/19 11:57:02;;;;;;;;;;;;;;;21.43;55.72;101764.50;7286545;19;153799;-60
2022/10/19 11:59:56;;;;;;;;;;;;;;;21.43;55.73;101752.41;7283525;19;153357;-60
2022/10/19 12:02:42;;;;;;;;;;;;;;;21.46;55.63;101746.19;7284001;19;152648;-60
2022/10/19 12:05:27;;;;;;;;;;;;;;;21.45;55.49;101734.09;7281141;19;152557;-60
2022/10/19 12:08:12;;;;;;;;;;;;;;;21.45;55.16;101720.03;7289885;19;152979;-60
2022/10/19 12:10:44;;;;;;;;;;;;;;;21.48;55.38;101708.22;7286266;19;153796;-60
2022/10/19 12:13:14;;;;;;;;;;;;;;;21.50;55.28;101707.91;7285114;19;152348;-60
2022/10/19 12:15:42;;;;;;;;;;;;;;;21.51;55.14;101675.84;7286043;19;152849;-60
2022/10/19 12:18:13;;;;;;;;;;;;;;;21.50;55.47;101683.44;7286999;19;151901;-60
2022/10/19 12:20:48;;;;;;;;;;;;;;;21.49;55.29;101676.13;7282839;19;154449;-60
2022/10/19 12:23:18;;;;;;;;;;;;;;;21.49;55.52;101672.47;7284399;19;152405;-60
2022/10/19 12:25:45;;;;;;;;;;;;;;;21.50;55.50;101674.16;7256977;19;152731;-60
2022/10/19 12:28:22;;;;;;;;;;;;;;;21.50;55.29;101691.03;7278797;19;154751;-60
2022/10/19 12:30:49;;;;;;;;;;;;;;;21.50;55.11;101679.78;7288504;19;152302;-60
2022/10/19 12:33:21;;;;;;;;;;;;;;;21.48;55.26;101666.03;7278419;19;153263;-60
2022/10/19 12:36:07;;;;;;;;;;;;;;;21.49;55.41;101652.78;7278894;19;152466;-60
2022/10/19 12:38:33;;;;;;;;;;;;;;;21.50;55.27;101635.63;7281735;19;153663;-60
2022/10/19 12:41:05;;;;;;;;;;;;;;;21.49;55.42;101625.53;7274409;19;153804;-60
2022/10/19 12:43:37;;;;;;;;;;;;;;;21.51;55.44;101623.25;7280193;19;152153;-60